sensor_id;sensor_type;location;lat;lon;timestamp;P1;durP1;ratioP1;P2;durP2;ratioP2
42668;SDS011;29384;42.028;21.388;2023-05-10T00:01:58;3.35;;;3.10;;
42668;SDS011;29384;42.028;21.388;2023-05-10T00:04:23;2.97;;;2.75;;
42668;SDS011;29384;42.028;21.388;2023-05-10T00:06:52;5.43;;;2.40;;
42668;SDS011;29384;42.028;21.388;2023-05-10T00:09:17;2.10;;;1.95;;
42668;SDS011;29384;42.028;21.388;2023-05-10T00:14:45;2.60;;;2.45;;
42668;SDS011;29384;42.028;21.388;2023-05-10T00:17:10;3.72;;;1.30;;
42668;SDS011;29384;42.028;21.388;2023-05-10T00:19:36;2.72;;;2.03;;
42668;SDS011;29384;42.028;21.388;2023-05-10T00:22:01;2.40;;;1.75;;
42668;SDS011;29384;42.028;21.388;2023-05-10T00:24:26;1.42;;;1.33;;
42668;SDS011;29384;42.028;21.388;2023-05-10T00:29:54;5.50;;;1.80;;
42668;SDS011;29384;42.028;21.388;2023-05-10T00:32:20;1.85;;;1.75;;
42668;SDS011;29384;42.028;21.388;2023-05-10T00:34:45;1.67;;;1.58;;
42668;SDS011;29384;42.028;21.388;2023-05-10T00:37:10;1.27;;;1.17;;
42668;SDS011;29384;42.028;21.388;2023-05-10T00:39:36;2.20;;;1.67;;
42668;SDS011;29384;42.028;21.388;2023-05-10T00:45:04;2.13;;;1.92;;
42668;SDS011;29384;42.028;21.388;2023-05-10T00:47:29;3.08;;;2.00;;
42668;SDS011;29384;42.028;21.388;2023-05-10T00:49:55;1.77;;;1.67;;
42668;SDS011;29384;42.028;21.388;2023-05-10T00:52:20;1.92;;;1.83;;
42668;SDS011;29384;42.028;21.388;2023-05-10T00:54:48;2.08;;;1.98;;
42668;SDS011;29384;42.028;21.388;2023-05-10T00:57:13;3.88;;;1.95;;
42668;SDS011;29384;42.028;21.388;2023-05-10T00:59:39;1.58;;;1.48;;
42668;SDS011;29384;42.028;21.388;2023-05-10T01:02:04;2.08;;;1.92;;
42668;SDS011;29384;42.028;21.388;2023-05-10T01:04:30;2.65;;;1.50;;
42668;SDS011;29384;42.028;21.388;2023-05-10T01:06:55;1.88;;;1.77;;
42668;SDS011;29384;42.028;21.388;2023-05-10T01:09:21;3.50;;;2.10;;
42668;SDS011;29384;42.028;21.388;2023-05-10T01:14:49;1.88;;;1.77;;
42668;SDS011;29384;42.028;21.388;2023-05-10T01:17:15;4.15;;;2.53;;
42668;SDS011;29384;42.028;21.388;2023-05-10T01:19:41;9.82;;;2.00;;
42668;SDS011;29384;42.028;21.388;2023-05-10T01:32:46;9.05;;;3.65;;
42668;SDS011;29384;42.028;21.388;2023-05-10T01:38:02;14.40;;;5.07;;
42668;SDS011;29384;42.028;21.388;2023-05-10T01:40:37;13.65;;;6.20;;
42668;SDS011;29384;42.028;21.388;2023-05-10T01:43:05;14.55;;;6.63;;
42668;SDS011;29384;42.028;21.388;2023-05-10T01:45:50;7.82;;;4.97;;
42668;SDS011;29384;42.028;21.388;2023-05-10T01:48:17;11.93;;;4.93;;
42668;SDS011;29384;42.028;21.388;2023-05-10T01:50:43;19.58;;;5.90;;
42668;SDS011;29384;42.028;21.388;2023-05-10T01:53:11;12.52;;;5.60;;
42668;SDS011;29384;42.028;21.388;2023-05-10T01:55:43;11.20;;;5.72;;
42668;SDS011;29384;42.028;21.388;2023-05-10T02:00:52;8.60;;;5.38;;
42668;SDS011;29384;42.028;21.388;2023-05-10T02:03:20;14.75;;;5.43;;
42668;SDS011;29384;42.028;21.388;2023-05-10T02:05:46;16.65;;;7.05;;
42668;SDS011;29384;42.028;21.388;2023-05-10T02:08:13;16.35;;;7.90;;
42668;SDS011;29384;42.028;21.388;2023-05-10T02:10:39;21.42;;;8.45;;
42668;SDS011;29384;42.028;21.388;2023-05-10T02:13:04;19.58;;;8.55;;
42668;SDS011;29384;42.028;21.388;2023-05-10T02:15:31;14.18;;;7.68;;
42668;SDS011;29384;42.028;21.388;2023-05-10T02:17:57;9.75;;;6.18;;
42668;SDS011;29384;42.028;21.388;2023-05-10T02:20:23;12.80;;;6.95;;
42668;SDS011;29384;42.028;21.388;2023-05-10T02:22:50;10.77;;;4.93;;
42668;SDS011;29384;42.028;21.388;2023-05-10T02:25:17;6.35;;;3.38;;
42668;SDS011;29384;42.028;21.388;2023-05-10T02:30:45;22.17;;;3.28;;
42668;SDS011;29384;42.028;21.388;2023-05-10T02:33:12;3.38;;;2.80;;
42668;SDS011;29384;42.028;21.388;2023-05-10T02:35:38;3.47;;;3.15;;
42668;SDS011;29384;42.028;21.388;2023-05-10T02:38:04;2.97;;;2.03;;
42668;SDS011;29384;42.028;21.388;2023-05-10T02:40:30;2.55;;;2.35;;
42668;SDS011;29384;42.028;21.388;2023-05-10T02:42:57;3.03;;;2.80;;
42668;SDS011;29384;42.028;21.388;2023-05-10T02:45:24;1.88;;;1.77;;
42668;SDS011;29384;42.028;21.388;2023-05-10T02:47:51;2.88;;;2.13;;
42668;SDS011;29384;42.028;21.388;2023-05-10T02:50:17;2.58;;;2.47;;
42668;SDS011;29384;42.028;21.388;2023-05-10T02:52:44;2.70;;;2.50;;
42668;SDS011;29384;42.028;21.388;2023-05-10T02:55:11;2.85;;;2.42;;
42668;SDS011;29384;42.028;21.388;2023-05-10T03:00:39;3.70;;;3.28;;
42668;SDS011;29384;42.028;21.388;2023-05-10T03:03:05;4.65;;;3.25;;
42668;SDS011;29384;42.028;21.388;2023-05-10T03:05:30;3.50;;;3.20;;
42668;SDS011;29384;42.028;21.388;2023-05-10T03:07:55;2.70;;;2.60;;
42668;SDS011;29384;42.028;21.388;2023-05-10T03:10:22;3.08;;;2.97;;
42668;SDS011;29384;42.028;21.388;2023-05-10T03:18:23;3.47;;;3.17;;
42668;SDS011;29384;42.028;21.388;2023-05-10T03:20:56;3.20;;;3.00;;
42668;SDS011;29384;42.028;21.388;2023-05-10T03:25:50;2.90;;;2.70;;
42668;SDS011;29384;42.028;21.388;2023-05-10T03:28:17;3.13;;;3.03;;
42668;SDS011;29384;42.028;21.388;2023-05-10T03:30:43;3.70;;;2.20;;
42668;SDS011;29384;42.028;21.388;2023-05-10T03:33:09;3.60;;;3.33;;
42668;SDS011;29384;42.028;21.388;2023-05-10T03:35:34;6.03;;;3.90;;
42668;SDS011;29384;42.028;21.388;2023-05-10T03:38:00;2.90;;;2.63;;
42668;SDS011;29384;42.028;21.388;2023-05-10T03:40:25;3.05;;;2.75;;
42668;SDS011;29384;42.028;21.388;2023-05-10T03:45:54;2.58;;;2.38;;
42668;SDS011;29384;42.028;21.388;2023-05-10T03:48:19;6.00;;;3.35;;
42668;SDS011;29384;42.028;21.388;2023-05-10T03:50:44;3.38;;;3.17;;
42668;SDS011;29384;42.028;21.388;2023-05-10T03:53:10;9.32;;;3.67;;
42668;SDS011;29384;42.028;21.388;2023-05-10T03:55:36;3.42;;;3.22;;
42668;SDS011;29384;42.028;21.388;2023-05-10T04:01:04;3.30;;;3.13;;
42668;SDS011;29384;42.028;21.388;2023-05-10T04:03:29;3.05;;;2.95;;
42668;SDS011;29384;42.028;21.388;2023-05-10T04:05:58;6.78;;;3.83;;
42668;SDS011;29384;42.028;21.388;2023-05-10T04:08:23;5.65;;;3.80;;
42668;SDS011;29384;42.028;21.388;2023-05-10T04:10:49;7.13;;;3.85;;
42668;SDS011;29384;42.028;21.388;2023-05-10T04:13:14;6.03;;;3.22;;
42668;SDS011;29384;42.028;21.388;2023-05-10T04:15:39;7.00;;;3.28;;
42668;SDS011;29384;42.028;21.388;2023-05-10T04:18:05;4.57;;;4.18;;
42668;SDS011;29384;42.028;21.388;2023-05-10T04:20:31;9.15;;;5.93;;
42668;SDS011;29384;42.028;21.388;2023-05-10T04:22:57;11.32;;;4.95;;
42668;SDS011;29384;42.028;21.388;2023-05-10T04:25:22;4.40;;;3.97;;
42668;SDS011;29384;42.028;21.388;2023-05-10T04:30:50;5.78;;;4.75;;
42668;SDS011;29384;42.028;21.388;2023-05-10T04:33:15;4.85;;;4.30;;
42668;SDS011;29384;42.028;21.388;2023-05-10T04:35:41;7.30;;;3.58;;
42668;SDS011;29384;42.028;21.388;2023-05-10T04:38:06;2.63;;;2.42;;
42668;SDS011;29384;42.028;21.388;2023-05-10T04:40:31;6.40;;;3.20;;
42668;SDS011;29384;42.028;21.388;2023-05-10T04:46:00;7.97;;;3.38;;
42668;SDS011;29384;42.028;21.388;2023-05-10T04:48:25;4.93;;;3.05;;
42668;SDS011;29384;42.028;21.388;2023-05-10T04:50:50;14.05;;;3.30;;
42668;SDS011;29384;42.028;21.388;2023-05-10T04:53:16;4.72;;;2.60;;
42668;SDS011;29384;42.028;21.388;2023-05-10T04:55:41;10.63;;;2.90;;
42668;SDS011;29384;42.028;21.388;2023-05-10T05:01:09;3.45;;;3.00;;
42668;SDS011;29384;42.028;21.388;2023-05-10T05:03:35;4.30;;;3.33;;
42668;SDS011;29384;42.028;21.388;2023-05-10T05:06:01;5.93;;;3.13;;
42668;SDS011;29384;42.028;21.388;2023-05-10T05:08:26;4.10;;;3.85;;
42668;SDS011;29384;42.028;21.388;2023-05-10T05:10:52;2.75;;;2.55;;
42668;SDS011;29384;42.028;21.388;2023-05-10T05:16:20;3.13;;;2.95;;
42668;SDS011;29384;42.028;21.388;2023-05-10T05:18:45;3.42;;;3.22;;
42668;SDS011;29384;42.028;21.388;2023-05-10T05:21:17;3.03;;;2.83;;
42668;SDS011;29384;42.028;21.388;2023-05-10T05:23:42;8.68;;;3.95;;
42668;SDS011;29384;42.028;21.388;2023-05-10T05:26:08;3.58;;;3.22;;
42668;SDS011;29384;42.028;21.388;2023-05-10T05:31:35;3.42;;;3.25;;
42668;SDS011;29384;42.028;21.388;2023-05-10T05:34:01;2.97;;;2.88;;
42668;SDS011;29384;42.028;21.388;2023-05-10T05:36:26;3.75;;;3.55;;
42668;SDS011;29384;42.028;21.388;2023-05-10T05:38:51;3.58;;;3.28;;
42668;SDS011;29384;42.028;21.388;2023-05-10T05:41:17;4.88;;;4.07;;
42668;SDS011;29384;42.028;21.388;2023-05-10T05:46:45;3.63;;;3.35;;
42668;SDS011;29384;42.028;21.388;2023-05-10T05:49:10;4.00;;;3.80;;
42668;SDS011;29384;42.028;21.388;2023-05-10T05:51:35;6.22;;;3.70;;
42668;SDS011;29384;42.028;21.388;2023-05-10T05:54:01;6.63;;;4.25;;
42668;SDS011;29384;42.028;21.388;2023-05-10T05:56:26;12.00;;;3.88;;
42668;SDS011;29384;42.028;21.388;2023-05-10T05:58:52;10.70;;;4.55;;
42668;SDS011;29384;42.028;21.388;2023-05-10T06:01:17;8.50;;;4.65;;
42668;SDS011;29384;42.028;21.388;2023-05-10T06:03:42;12.13;;;5.88;;
42668;SDS011;29384;42.028;21.388;2023-05-10T06:06:08;8.50;;;5.47;;
42668;SDS011;29384;42.028;21.388;2023-05-10T06:08:33;12.68;;;6.85;;
42668;SDS011;29384;42.028;21.388;2023-05-10T06:10:59;16.73;;;5.90;;
42668;SDS011;29384;42.028;21.388;2023-05-10T06:16:27;4.45;;;3.95;;
42668;SDS011;29384;42.028;21.388;2023-05-10T06:18:53;10.65;;;4.28;;
42668;SDS011;29384;42.028;21.388;2023-05-10T06:21:18;5.03;;;4.63;;
42668;SDS011;29384;42.028;21.388;2023-05-10T06:23:43;4.00;;;3.67;;
42668;SDS011;29384;42.028;21.388;2023-05-10T06:26:09;4.18;;;3.03;;
42668;SDS011;29384;42.028;21.388;2023-05-10T06:31:37;5.88;;;3.88;;
42668;SDS011;29384;42.028;21.388;2023-05-10T06:34:02;3.67;;;3.40;;
42668;SDS011;29384;42.028;21.388;2023-05-10T06:36:27;8.25;;;4.22;;
42668;SDS011;29384;42.028;21.388;2023-05-10T06:38:53;4.38;;;3.92;;
42668;SDS011;29384;42.028;21.388;2023-05-10T06:41:18;4.57;;;3.78;;
42668;SDS011;29384;42.028;21.388;2023-05-10T06:46:46;3.22;;;3.00;;
42668;SDS011;29384;42.028;21.388;2023-05-10T06:49:11;6.13;;;3.90;;
42668;SDS011;29384;42.028;21.388;2023-05-10T06:51:37;3.67;;;3.42;;
42668;SDS011;29384;42.028;21.388;2023-05-10T06:54:02;9.30;;;3.90;;
42668;SDS011;29384;42.028;21.388;2023-05-10T06:56:28;4.13;;;3.63;;
42668;SDS011;29384;42.028;21.388;2023-05-10T07:01:56;5.05;;;3.65;;
42668;SDS011;29384;42.028;21.388;2023-05-10T07:04:21;3.30;;;3.05;;
42668;SDS011;29384;42.028;21.388;2023-05-10T07:06:46;2.70;;;2.50;;
42668;SDS011;29384;42.028;21.388;2023-05-10T07:09:11;3.10;;;2.88;;
42668;SDS011;29384;42.028;21.388;2023-05-10T07:11:38;2.70;;;2.45;;
42668;SDS011;29384;42.028;21.388;2023-05-10T07:17:06;4.25;;;2.35;;
42668;SDS011;29384;42.028;21.388;2023-05-10T07:19:31;2.22;;;2.13;;
42668;SDS011;29384;42.028;21.388;2023-05-10T07:21:57;3.20;;;2.90;;
42668;SDS011;29384;42.028;21.388;2023-05-10T07:24:23;3.00;;;2.30;;
42668;SDS011;29384;42.028;21.388;2023-05-10T07:26:49;4.63;;;3.55;;
42668;SDS011;29384;42.028;21.388;2023-05-10T07:29:14;4.53;;;2.35;;
42668;SDS011;29384;42.028;21.388;2023-05-10T07:31:39;6.45;;;3.35;;
42668;SDS011;29384;42.028;21.388;2023-05-10T07:34:07;2.13;;;2.00;;
42668;SDS011;29384;42.028;21.388;2023-05-10T07:36:32;3.05;;;2.88;;
42668;SDS011;29384;42.028;21.388;2023-05-10T07:38:57;2.70;;;2.40;;
42668;SDS011;29384;42.028;21.388;2023-05-10T07:41:23;1.67;;;1.58;;
42668;SDS011;29384;42.028;21.388;2023-05-10T07:46:51;1.85;;;1.75;;
42668;SDS011;29384;42.028;21.388;2023-05-10T07:49:17;8.85;;;2.13;;
42668;SDS011;29384;42.028;21.388;2023-05-10T07:51:42;1.92;;;1.83;;
42668;SDS011;29384;42.028;21.388;2023-05-10T07:54:07;1.48;;;1.48;;
42668;SDS011;29384;42.028;21.388;2023-05-10T07:56:33;1.98;;;1.77;;
42668;SDS011;29384;42.028;21.388;2023-05-10T08:02:02;3.42;;;1.73;;
42668;SDS011;29384;42.028;21.388;2023-05-10T08:04:27;2.10;;;2.00;;
42668;SDS011;29384;42.028;21.388;2023-05-10T08:06:52;3.17;;;1.67;;
42668;SDS011;29384;42.028;21.388;2023-05-10T08:09:18;9.35;;;2.22;;
42668;SDS011;29384;42.028;21.388;2023-05-10T08:11:48;8.07;;;2.00;;
42668;SDS011;29384;42.028;21.388;2023-05-10T08:17:16;2.17;;;2.08;;
42668;SDS011;29384;42.028;21.388;2023-05-10T08:19:41;2.20;;;2.10;;
42668;SDS011;29384;42.028;21.388;2023-05-10T08:22:06;1.92;;;1.75;;
42668;SDS011;29384;42.028;21.388;2023-05-10T08:24:32;1.13;;;1.13;;
42668;SDS011;29384;42.028;21.388;2023-05-10T08:26:57;1.83;;;1.20;;
42668;SDS011;29384;42.028;21.388;2023-05-10T08:32:25;1.60;;;1.60;;
42668;SDS011;29384;42.028;21.388;2023-05-10T08:34:51;1.20;;;1.20;;
42668;SDS011;29384;42.028;21.388;2023-05-10T08:37:16;1.50;;;1.40;;
42668;SDS011;29384;42.028;21.388;2023-05-10T08:39:41;2.80;;;1.40;;
42668;SDS011;29384;42.028;21.388;2023-05-10T08:42:07;4.50;;;1.92;;
42668;SDS011;29384;42.028;21.388;2023-05-10T08:47:36;1.20;;;1.20;;
42668;SDS011;29384;42.028;21.388;2023-05-10T08:50:03;1.20;;;1.20;;
42668;SDS011;29384;42.028;21.388;2023-05-10T08:52:28;6.20;;;2.08;;
42668;SDS011;29384;42.028;21.388;2023-05-10T08:54:55;0.95;;;0.95;;
42668;SDS011;29384;42.028;21.388;2023-05-10T08:57:20;2.72;;;1.33;;
42668;SDS011;29384;42.028;21.388;2023-05-10T08:59:45;0.82;;;0.82;;
42668;SDS011;29384;42.028;21.388;2023-05-10T09:02:11;1.10;;;1.00;;
42668;SDS011;29384;42.028;21.388;2023-05-10T09:04:37;1.13;;;1.13;;
42668;SDS011;29384;42.028;21.388;2023-05-10T09:07:02;6.93;;;1.20;;
42668;SDS011;29384;42.028;21.388;2023-05-10T09:09:28;1.20;;;1.20;;
42668;SDS011;29384;42.028;21.388;2023-05-10T09:11:53;3.00;;;1.00;;
42668;SDS011;29384;42.028;21.388;2023-05-10T09:17:23;1.33;;;1.30;;
42668;SDS011;29384;42.028;21.388;2023-05-10T09:19:48;3.08;;;1.63;;
42668;SDS011;29384;42.028;21.388;2023-05-10T09:22:13;2.15;;;0.98;;
42668;SDS011;29384;42.028;21.388;2023-05-10T09:24:39;1.73;;;1.55;;
42668;SDS011;29384;42.028;21.388;2023-05-10T09:27:10;1.52;;;1.52;;
42668;SDS011;29384;42.028;21.388;2023-05-10T09:32:41;5.22;;;1.08;;
42668;SDS011;29384;42.028;21.388;2023-05-10T09:35:08;0.75;;;0.75;;
42668;SDS011;29384;42.028;21.388;2023-05-10T09:37:33;0.88;;;0.88;;
42668;SDS011;29384;42.028;21.388;2023-05-10T09:39:58;0.98;;;0.52;;
42668;SDS011;29384;42.028;21.388;2023-05-10T09:42:24;0.95;;;0.95;;
42668;SDS011;29384;42.028;21.388;2023-05-10T09:47:53;1.10;;;1.10;;
42668;SDS011;29384;42.028;21.388;2023-05-10T09:50:19;2.05;;;1.08;;
42668;SDS011;29384;42.028;21.388;2023-05-10T09:52:48;0.93;;;0.93;;
42668;SDS011;29384;42.028;21.388;2023-05-10T09:55:13;1.38;;;0.90;;
42668;SDS011;29384;42.028;21.388;2023-05-10T09:57:39;1.05;;;1.05;;
42668;SDS011;29384;42.028;21.388;2023-05-10T10:00:05;1.20;;;1.10;;
42668;SDS011;29384;42.028;21.388;2023-05-10T10:02:31;1.10;;;1.10;;
42668;SDS011;29384;42.028;21.388;2023-05-10T10:04:56;1.33;;;1.23;;
42668;SDS011;29384;42.028;21.388;2023-05-10T10:07:22;1.38;;;1.35;;
42668;SDS011;29384;42.028;21.388;2023-05-10T10:09:47;3.40;;;1.00;;
42668;SDS011;29384;42.028;21.388;2023-05-10T10:12:12;1.30;;;1.30;;
42668;SDS011;29384;42.028;21.388;2023-05-10T10:17:40;0.63;;;0.60;;
42668;SDS011;29384;42.028;21.388;2023-05-10T10:20:06;1.08;;;1.08;;
42668;SDS011;29384;42.028;21.388;2023-05-10T10:22:32;3.60;;;1.52;;
42668;SDS011;29384;42.028;21.388;2023-05-10T10:24:57;1.13;;;0.93;;
42668;SDS011;29384;42.028;21.388;2023-05-10T10:27:28;0.80;;;0.80;;
42668;SDS011;29384;42.028;21.388;2023-05-10T10:35:32;3.03;;;1.02;;
42668;SDS011;29384;42.028;21.388;2023-05-10T10:37:58;2.78;;;0.85;;
42668;SDS011;29384;42.028;21.388;2023-05-10T10:40:24;0.80;;;0.80;;
42668;SDS011;29384;42.028;21.388;2023-05-10T10:42:50;8.13;;;2.00;;
42668;SDS011;29384;42.028;21.388;2023-05-10T10:45:16;1.05;;;1.05;;
42668;SDS011;29384;42.028;21.388;2023-05-10T10:47:41;1.50;;;1.40;;
42668;SDS011;29384;42.028;21.388;2023-05-10T10:50:08;24.95;;;2.35;;
42668;SDS011;29384;42.028;21.388;2023-05-10T10:52:38;6.53;;;1.60;;
42668;SDS011;29384;42.028;21.388;2023-05-10T10:55:05;1.35;;;1.25;;
42668;SDS011;29384;42.028;21.388;2023-05-10T10:57:32;2.05;;;1.90;;
42668;SDS011;29384;42.028;21.388;2023-05-10T11:03:04;2.03;;;1.38;;
42668;SDS011;29384;42.028;21.388;2023-05-10T11:05:41;0.85;;;0.85;;
42668;SDS011;29384;42.028;21.388;2023-05-10T11:08:08;4.78;;;1.17;;
42668;SDS011;29384;42.028;21.388;2023-05-10T11:10:34;1.27;;;1.27;;
42668;SDS011;29384;42.028;21.388;2023-05-10T11:15:32;0.70;;;0.70;;
42668;SDS011;29384;42.028;21.388;2023-05-10T11:17:58;2.60;;;1.20;;
42668;SDS011;29384;42.028;21.388;2023-05-10T11:20:23;2.67;;;1.20;;
42668;SDS011;29384;42.028;21.388;2023-05-10T11:22:57;1.33;;;1.13;;
42668;SDS011;29384;42.028;21.388;2023-05-10T11:25:26;2.63;;;0.85;;
42668;SDS011;29384;42.028;21.388;2023-05-10T11:27:51;1.65;;;1.55;;
42668;SDS011;29384;42.028;21.388;2023-05-10T11:33:19;0.70;;;0.70;;
42668;SDS011;29384;42.028;21.388;2023-05-10T11:35:45;3.97;;;0.63;;
42668;SDS011;29384;42.028;21.388;2023-05-10T11:38:11;0.60;;;0.60;;
42668;SDS011;29384;42.028;21.388;2023-05-10T11:40:36;0.80;;;0.80;;
42668;SDS011;29384;42.028;21.388;2023-05-10T11:43:02;0.85;;;0.85;;
42668;SDS011;29384;42.028;21.388;2023-05-10T11:48:30;7.40;;;1.20;;
42668;SDS011;29384;42.028;21.388;2023-05-10T11:50:56;0.50;;;0.50;;
42668;SDS011;29384;42.028;21.388;2023-05-10T11:53:22;1.55;;;1.45;;
42668;SDS011;29384;42.028;21.388;2023-05-10T11:55:48;1.05;;;0.60;;
42668;SDS011;29384;42.028;21.388;2023-05-10T11:58:13;1.80;;;1.10;;
42668;SDS011;29384;42.028;21.388;2023-05-10T12:00:38;1.65;;;1.30;;
42668;SDS011;29384;42.028;21.388;2023-05-10T12:03:04;1.33;;;0.88;;
42668;SDS011;29384;42.028;21.388;2023-05-10T12:05:31;0.77;;;0.77;;
42668;SDS011;29384;42.028;21.388;2023-05-10T12:08:10;0.60;;;0.60;;
42668;SDS011;29384;42.028;21.388;2023-05-10T12:10:35;5.63;;;0.63;;
42668;SDS011;29384;42.028;21.388;2023-05-10T12:13:00;0.60;;;0.47;;
42668;SDS011;29384;42.028;21.388;2023-05-10T12:18:28;2.72;;;1.17;;
42668;SDS011;29384;42.028;21.388;2023-05-10T12:20:54;0.95;;;0.50;;
42668;SDS011;29384;42.028;21.388;2023-05-10T12:23:20;0.80;;;0.55;;
42668;SDS011;29384;42.028;21.388;2023-05-10T12:25:45;0.43;;;0.43;;
42668;SDS011;29384;42.028;21.388;2023-05-10T12:28:10;0.60;;;0.60;;
42668;SDS011;29384;42.028;21.388;2023-05-10T12:33:39;1.10;;;0.50;;
42668;SDS011;29384;42.028;21.388;2023-05-10T12:36:07;11.60;;;2.28;;
42668;SDS011;29384;42.028;21.388;2023-05-10T12:38:34;1.25;;;0.50;;
42668;SDS011;29384;42.028;21.388;2023-05-10T12:41:00;1.13;;;1.13;;
42668;SDS011;29384;42.028;21.388;2023-05-10T12:43:25;0.60;;;0.60;;
42668;SDS011;29384;42.028;21.388;2023-05-10T12:45:51;3.05;;;0.43;;
42668;SDS011;29384;42.028;21.388;2023-05-10T12:48:16;22.15;;;0.70;;
42668;SDS011;29384;42.028;21.388;2023-05-10T12:50:41;5.05;;;0.85;;
42668;SDS011;29384;42.028;21.388;2023-05-10T12:53:07;0.40;;;0.40;;
42668;SDS011;29384;42.028;21.388;2023-05-10T12:55:32;0.40;;;0.40;;
42668;SDS011;29384;42.028;21.388;2023-05-10T12:57:57;1.17;;;0.45;;
42668;SDS011;29384;42.028;21.388;2023-05-10T13:03:26;0.52;;;0.50;;
42668;SDS011;29384;42.028;21.388;2023-05-10T13:05:52;1.40;;;0.30;;
42668;SDS011;29384;42.028;21.388;2023-05-10T13:08:17;1.20;;;1.10;;
42668;SDS011;29384;42.028;21.388;2023-05-10T13:10:43;4.55;;;0.98;;
42668;SDS011;29384;42.028;21.388;2023-05-10T13:13:08;2.40;;;1.05;;
42668;SDS011;29384;42.028;21.388;2023-05-10T13:18:37;4.30;;;1.70;;
42668;SDS011;29384;42.028;21.388;2023-05-10T13:21:02;2.35;;;1.70;;
42668;SDS011;29384;42.028;21.388;2023-05-10T13:23:30;0.93;;;0.93;;
42668;SDS011;29384;42.028;21.388;2023-05-10T13:25:55;7.80;;;1.20;;
42668;SDS011;29384;42.028;21.388;2023-05-10T13:28:20;1.38;;;1.30;;
42668;SDS011;29384;42.028;21.388;2023-05-10T13:33:48;1.05;;;0.73;;
42668;SDS011;29384;42.028;21.388;2023-05-10T13:36:14;0.80;;;0.80;;
42668;SDS011;29384;42.028;21.388;2023-05-10T13:38:39;1.67;;;1.15;;
42668;SDS011;29384;42.028;21.388;2023-05-10T13:41:04;2.97;;;1.30;;
42668;SDS011;29384;42.028;21.388;2023-05-10T13:43:30;0.57;;;0.57;;
42668;SDS011;29384;42.028;21.388;2023-05-10T13:48:58;1.25;;;1.15;;
42668;SDS011;29384;42.028;21.388;2023-05-10T13:51:23;0.77;;;0.50;;
42668;SDS011;29384;42.028;21.388;2023-05-10T13:53:49;0.63;;;0.63;;
42668;SDS011;29384;42.028;21.388;2023-05-10T13:56:14;3.15;;;0.75;;
42668;SDS011;29384;42.028;21.388;2023-05-10T13:58:40;0.98;;;0.80;;
42668;SDS011;29384;42.028;21.388;2023-05-10T14:04:08;5.53;;;1.10;;
42668;SDS011;29384;42.028;21.388;2023-05-10T14:06:35;12.75;;;1.73;;
42668;SDS011;29384;42.028;21.388;2023-05-10T14:09:01;2.00;;;0.73;;
42668;SDS011;29384;42.028;21.388;2023-05-10T14:11:27;0.65;;;0.60;;
42668;SDS011;29384;42.028;21.388;2023-05-10T14:13:52;3.50;;;1.73;;
42668;SDS011;29384;42.028;21.388;2023-05-10T14:16:17;4.43;;;1.25;;
42668;SDS011;29384;42.028;21.388;2023-05-10T14:18:43;0.55;;;0.52;;
42668;SDS011;29384;42.028;21.388;2023-05-10T14:21:08;0.98;;;0.98;;
42668;SDS011;29384;42.028;21.388;2023-05-10T14:23:33;5.72;;;1.38;;
42668;SDS011;29384;42.028;21.388;2023-05-10T14:25:59;2.83;;;1.45;;
42668;SDS011;29384;42.028;21.388;2023-05-10T14:28:24;0.95;;;0.40;;
42668;SDS011;29384;42.028;21.388;2023-05-10T14:33:52;5.15;;;0.95;;
42668;SDS011;29384;42.028;21.388;2023-05-10T14:36:18;7.78;;;0.70;;
42668;SDS011;29384;42.028;21.388;2023-05-10T14:38:43;3.40;;;0.52;;
42668;SDS011;29384;42.028;21.388;2023-05-10T14:41:08;0.60;;;0.60;;
42668;SDS011;29384;42.028;21.388;2023-05-10T14:43:34;3.17;;;0.43;;
42668;SDS011;29384;42.028;21.388;2023-05-10T14:49:02;0.45;;;0.45;;
42668;SDS011;29384;42.028;21.388;2023-05-10T14:51:28;0.63;;;0.63;;
42668;SDS011;29384;42.028;21.388;2023-05-10T14:53:53;0.85;;;0.65;;
42668;SDS011;29384;42.028;21.388;2023-05-10T14:56:18;1.27;;;0.43;;
42668;SDS011;29384;42.028;21.388;2023-05-10T14:58:44;11.07;;;1.15;;
42668;SDS011;29384;42.028;21.388;2023-05-10T15:04:12;4.97;;;0.77;;
42668;SDS011;29384;42.028;21.388;2023-05-10T15:06:38;7.55;;;0.85;;
42668;SDS011;29384;42.028;21.388;2023-05-10T15:09:03;1.92;;;1.02;;
42668;SDS011;29384;42.028;21.388;2023-05-10T15:11:29;0.80;;;0.80;;
42668;SDS011;29384;42.028;21.388;2023-05-10T15:13:54;0.30;;;0.30;;
42668;SDS011;29384;42.028;21.388;2023-05-10T15:19:22;0.98;;;0.60;;
42668;SDS011;29384;42.028;21.388;2023-05-10T15:21:48;0.52;;;0.52;;
42668;SDS011;29384;42.028;21.388;2023-05-10T15:24:13;0.40;;;0.40;;
42668;SDS011;29384;42.028;21.388;2023-05-10T15:26:39;3.15;;;0.70;;
42668;SDS011;29384;42.028;21.388;2023-05-10T15:29:05;2.38;;;0.60;;
42668;SDS011;29384;42.028;21.388;2023-05-10T15:34:33;2.08;;;0.35;;
42668;SDS011;29384;42.028;21.388;2023-05-10T15:36:58;0.55;;;0.52;;
42668;SDS011;29384;42.028;21.388;2023-05-10T15:39:23;0.98;;;0.98;;
42668;SDS011;29384;42.028;21.388;2023-05-10T15:41:49;1.08;;;1.08;;
42668;SDS011;29384;42.028;21.388;2023-05-10T15:44:14;0.90;;;0.90;;
42668;SDS011;29384;42.028;21.388;2023-05-10T15:49:42;3.10;;;2.03;;
42668;SDS011;29384;42.028;21.388;2023-05-10T15:52:07;2.40;;;2.13;;
42668;SDS011;29384;42.028;21.388;2023-05-10T15:54:33;1.60;;;1.27;;
42668;SDS011;29384;42.028;21.388;2023-05-10T15:56:58;2.15;;;1.90;;
42668;SDS011;29384;42.028;21.388;2023-05-10T15:59:24;2.42;;;1.00;;
42668;SDS011;29384;42.028;21.388;2023-05-10T16:04:52;1.10;;;1.10;;
42668;SDS011;29384;42.028;21.388;2023-05-10T16:07:17;2.20;;;1.02;;
42668;SDS011;29384;42.028;21.388;2023-05-10T16:09:42;2.92;;;1.05;;
42668;SDS011;29384;42.028;21.388;2023-05-10T16:12:08;1.83;;;1.55;;
42668;SDS011;29384;42.028;21.388;2023-05-10T16:14:33;1.95;;;1.58;;
42668;SDS011;29384;42.028;21.388;2023-05-10T16:16:58;7.28;;;1.27;;
42668;SDS011;29384;42.028;21.388;2023-05-10T16:19:24;1.45;;;1.35;;
42668;SDS011;29384;42.028;21.388;2023-05-10T16:21:49;1.83;;;1.30;;
42668;SDS011;29384;42.028;21.388;2023-05-10T16:24:14;4.93;;;1.25;;
42668;SDS011;29384;42.028;21.388;2023-05-10T16:26:40;4.40;;;2.08;;
42668;SDS011;29384;42.028;21.388;2023-05-10T16:29:06;1.35;;;1.23;;
42668;SDS011;29384;42.028;21.388;2023-05-10T16:34:34;0.68;;;0.68;;
42668;SDS011;29384;42.028;21.388;2023-05-10T16:36:59;3.50;;;1.42;;
42668;SDS011;29384;42.028;21.388;2023-05-10T16:39:25;0.60;;;0.60;;
42668;SDS011;29384;42.028;21.388;2023-05-10T16:41:50;1.55;;;1.45;;
42668;SDS011;29384;42.028;21.388;2023-05-10T16:44:15;1.23;;;1.13;;
42668;SDS011;29384;42.028;21.388;2023-05-10T16:49:43;1.05;;;1.00;;
42668;SDS011;29384;42.028;21.388;2023-05-10T16:52:08;1.95;;;1.50;;
42668;SDS011;29384;42.028;21.388;2023-05-10T16:54:34;1.92;;;1.00;;
42668;SDS011;29384;42.028;21.388;2023-05-10T16:56:59;6.95;;;1.70;;
42668;SDS011;29384;42.028;21.388;2023-05-10T16:59:26;6.55;;;1.40;;
42668;SDS011;29384;42.028;21.388;2023-05-10T17:04:54;1.08;;;1.00;;
42668;SDS011;29384;42.028;21.388;2023-05-10T17:07:20;1.80;;;1.20;;
42668;SDS011;29384;42.028;21.388;2023-05-10T17:09:45;1.23;;;1.13;;
42668;SDS011;29384;42.028;21.388;2023-05-10T17:12:10;6.03;;;1.38;;
42668;SDS011;29384;42.028;21.388;2023-05-10T17:14:36;0.77;;;0.77;;
42668;SDS011;29384;42.028;21.388;2023-05-10T17:20:05;0.45;;;0.45;;
42668;SDS011;29384;42.028;21.388;2023-05-10T17:22:31;1.65;;;1.55;;
42668;SDS011;29384;42.028;21.388;2023-05-10T17:24:56;6.32;;;1.30;;
42668;SDS011;29384;42.028;21.388;2023-05-10T17:27:22;3.25;;;1.98;;